KGTB

Wheeler-Sack AAF Airport

Fort Drum, New York, USA
TAF AMD KGTB 182102Z 1821/1923 30009KT 9999 BKN030 QNH3006INS BECMG 1823/1824 28009KT 9999 FEW030 FEW200 QNH3005INS BECMG 1908/1909 20009KT 9999 SCT120 BKN210 QNH3003INS BECMG 1915/1916 20012KT 9999 SCT100 BKN180 QNH3000INS BECMG 1919/1920 20009KT 9999 FEW120 SCT180 QNH2996INS TX01/1917Z TNM08/1900Z
Issued Valid From Valid To
Dec-18 @ 21:02 UTC
(3 hours ago)
Dec-18 @ 21:00 UTC
(3 hours ago)
Dec-19 @ 23:00 UTC
(in 23 hours)
Expired Click to View Dec-18 @ 21:00 to Dec-18 @ 23:00
TAF AMD KGTB 182102Z 1821/1923 30009KT 9999 BKN030 QNH3006INS
Wind Visibility Clouds Readings
300° at 9 knots Greater than 6 miles
  • Broken at 3,000' AGL
Altimeter 30.06" Hg
Pressure 1018 hPa
Becoming Dec-18 @ 23:00 to Dec-19 @ 08:00
BECMG 1823/1824 28009KT 9999 FEW030 FEW200 QNH3005INS
Wind Visibility Clouds Readings
280° at 9 knots Greater than 6 miles
  • Few at 3,000' AGL
  • Few at 20,000' AGL
Altimeter 30.06" Hg
Pressure 1018 hPa
Becoming Dec-19 @ 08:00 to Dec-19 @ 15:00
BECMG 1908/1909 20009KT 9999 SCT120 BKN210 QNH3003INS
Wind Visibility Clouds Readings
200° at 9 knots Greater than 6 miles
  • Scattered at 12,000' AGL
  • Broken at 21,000' AGL
Altimeter 30.03" Hg
Pressure 1017 hPa
Becoming Dec-19 @ 15:00 to Dec-19 @ 19:00
BECMG 1915/1916 20012KT 9999 SCT100 BKN180 QNH3000INS
Wind Visibility Clouds Readings
200° at 12 knots Greater than 6 miles
  • Scattered at 10,000' AGL
  • Broken at 18,000' AGL
Altimeter 30" Hg
Pressure 1016 hPa
Becoming Dec-19 @ 19:00 to Dec-19 @ 23:00
BECMG 1919/1920 20009KT 9999 FEW120 SCT180 QNH2996INS TX01/1917Z TNM08/1900Z
Wind Visibility Clouds Readings
200° at 9 knots Greater than 6 miles
  • Few at 12,000' AGL
  • Scattered at 18,000' AGL
Altimeter 29.97" Hg
Pressure 1015 hPa
TAF AMD KGTB 182102Z 1821/1923 30009KT 9999 BKN030 QNH3006INS BECMG 1823/1824 28009KT 9999 FEW030 FEW200 QNH3005INS BECMG 1908/1909 20009KT 9999 SCT120 BKN210 QNH3003INS BECMG 1915/1916 20012KT 9999 SCT100 BKN180 QNH3000INS BECMG 1919/1920 20009KT 9999 FEW120 SCT180 QNH2996INS TX01/1917Z TNM08/1900Z
Issued Dec-18 @ 21:02 UTC
(3 hours ago)
Valid From Dec-18 @ 21:00 UTC
(3 hours ago)
Valid To Dec-19 @ 23:00 UTC
(in 23 hours)
Dec-18 @ 21:00 - Dec-18 @ 23:00
Wind Visibility
300° at 9 knots Greater than 6 miles
Clouds
  • Broken at 3,000' AGL
Becoming Dec-18 @ 23:00 - Dec-19 @ 08:00
Wind Visibility
280° at 9 knots Greater than 6 miles
Clouds
  • Few at 3,000' AGL
  • Few at 20,000' AGL
Becoming Dec-19 @ 08:00 - Dec-19 @ 15:00
Wind Visibility
200° at 9 knots Greater than 6 miles
Clouds
  • Scattered at 12,000' AGL
  • Broken at 21,000' AGL
Becoming Dec-19 @ 15:00 - Dec-19 @ 19:00
Wind Visibility
200° at 12 knots Greater than 6 miles
Clouds
  • Scattered at 10,000' AGL
  • Broken at 18,000' AGL
Becoming Dec-19 @ 19:00 - Dec-19 @ 23:00
Wind Visibility
200° at 9 knots Greater than 6 miles
Clouds
  • Few at 12,000' AGL
  • Scattered at 18,000' AGL